Time;durP1;ratioP1;P1;durP2;ratioP2;P2;SDS_P1;SDS_P2;PMS_P1;PMS_P2;Temp;Humidity;BMP_temperature;BMP_pressure;BME280_temperature;BME280_humidity;BME280_pressure;Samples;Min_cycle;Max_cycle;Signal;HPM_P1;HPM_P2
2021/05/24 00:02:26;;;;;;;59.50;55.40;;;17.20;99.90;;;;;;5015922;28;20024;-61
2021/05/24 00:04:53;;;;;;;57.08;52.97;;;17.50;99.90;;;;;;5015702;28;20026;-62
2021/05/24 00:07:20;;;;;;;56.38;52.35;;;17.90;99.90;;;;;;5015359;28;20018;-61
2021/05/24 00:09:48;;;;;;;57.25;53.45;;;18.10;99.90;;;;;;5015707;28;20018;-61
2021/05/24 00:12:16;;;;;;;55.97;52.15;;;18.20;99.90;;;;;;5015479;28;20372;-61
2021/05/24 00:14:47;;;;;;;57.58;53.65;;;18.40;99.90;;;;;;5015659;28;20022;-60
2021/05/24 00:17:14;;;;;;;59.72;55.65;;;18.70;99.90;;;;;;5015499;28;20117;-61
2021/05/24 00:19:41;;;;;;;60.22;56.22;;;18.60;99.90;;;;;;5015513;28;20037;-61
2021/05/24 00:22:09;;;;;;;58.65;54.72;;;18.80;99.90;;;;;;5015259;28;20493;-61
2021/05/24 00:24:36;;;;;;;59.08;55.17;;;19.00;99.90;;;;;;5015554;28;20022;-61
2021/05/24 00:27:04;;;;;;;61.47;57.63;;;18.80;99.90;;;;;;5015534;28;20497;-60
2021/05/24 00:29:31;;;;;;;57.88;54.17;;;18.90;99.90;;;;;;5015231;28;20080;-61
2021/05/24 00:31:58;;;;;;;55.92;52.13;;;18.80;99.90;;;;;;5015033;28;20038;-61
2021/05/24 00:34:26;;;;;;;57.88;53.72;;;18.80;99.90;;;;;;5015126;28;20026;-61
2021/05/24 00:36:55;;;;;;;55.53;51.70;;;18.60;99.90;;;;;;5015426;28;20083;-62
2021/05/24 00:39:23;;;;;;;56.75;53.00;;;18.40;99.90;;;;;;5014970;28;20026;-61
2021/05/24 00:41:51;;;;;;;57.60;53.58;;;18.40;99.90;;;;;;5014977;28;20528;-61
2021/05/24 00:44:18;;;;;;;61.55;57.38;;;18.40;99.90;;;;;;5015030;28;20095;-60
2021/05/24 00:46:46;;;;;;;62.83;58.58;;;18.40;99.90;;;;;;5014838;28;20030;-61
2021/05/24 00:49:13;;;;;;;61.30;57.42;;;18.40;99.90;;;;;;5014841;28;20056;-59
2021/05/24 00:51:40;;;;;;;59.08;55.00;;;18.40;99.90;;;;;;5014912;28;20057;-62
2021/05/24 00:54:08;;;;;;;58.58;54.47;;;18.20;99.90;;;;;;5014800;28;20026;-59
2021/05/24 00:56:35;;;;;;;60.25;56.15;;;18.30;99.90;;;;;;5014680;28;20033;-61
2021/05/24 00:59:03;;;;;;;61.15;57.15;;;18.40;99.90;;;;;;5014472;28;20046;-59
2021/05/24 01:01:30;;;;;;;65.03;60.45;;;18.40;99.90;;;;;;5014549;28;20034;-59
2021/05/24 01:03:58;;;;;;;61.83;57.70;;;18.30;99.90;;;;;;5014468;28;20029;-59
2021/05/24 01:06:25;;;;;;;61.65;57.45;;;18.30;99.90;;;;;;5014966;28;20040;-59
2021/05/24 01:08:53;;;;;;;61.35;57.28;;;18.20;99.90;;;;;;5014372;28;20017;-59
2021/05/24 01:11:23;;;;;;;60.40;56.30;;;18.20;99.90;;;;;;5014529;28;20033;-59
2021/05/24 01:13:51;;;;;;;61.80;57.58;;;18.20;99.90;;;;;;5014476;28;20344;-59
2021/05/24 01:16:18;;;;;;;61.47;56.95;;;18.10;99.90;;;;;;5014317;28;20030;-63
2021/05/24 01:18:46;;;;;;;63.38;58.72;;;18.10;99.90;;;;;;5013268;28;20419;-60
2021/05/24 01:21:16;;;;;;;65.85;61.05;;;18.00;99.90;;;;;;4996490;28;20022;-60
2021/05/24 01:23:45;;;;;;;66.68;61.65;;;17.90;99.90;;;;;;5014283;28;20100;-59
2021/05/24 01:26:14;;;;;;;62.35;57.85;;;17.80;99.90;;;;;;5014263;28;20034;-59
2021/05/24 01:28:41;;;;;;;61.08;56.65;;;17.70;99.90;;;;;;5013869;28;20049;-58
2021/05/24 01:31:09;;;;;;;60.15;56.08;;;17.70;99.90;;;;;;5014183;28;20571;-58
2021/05/24 01:33:37;;;;;;;61.40;57.08;;;17.80;99.90;;;;;;5013995;28;20033;-59
2021/05/24 01:36:07;;;;;;;59.90;55.80;;;17.80;99.90;;;;;;5013980;28;20030;-59
2021/05/24 01:38:37;;;;;;;61.50;56.90;;;17.80;99.90;;;;;;5013984;28;20061;-59
2021/05/24 01:41:06;;;;;;;58.92;54.92;;;17.70;99.90;;;;;;5013823;28;20026;-59
2021/05/24 01:43:34;;;;;;;59.92;55.95;;;17.70;99.90;;;;;;4996118;28;20022;-59
2021/05/24 01:46:02;;;;;;;58.22;54.60;;;17.60;99.90;;;;;;5013865;28;20439;-59
2021/05/24 01:48:31;;;;;;;56.75;52.95;;;17.60;99.90;;;;;;5013733;28;20033;-59
2021/05/24 01:50:58;;;;;;;56.30;52.60;;;17.70;99.90;;;;;;5013916;28;20347;-59
2021/05/24 01:53:26;;;;;;;56.20;52.38;;;17.70;99.90;;;;;;5013786;28;20028;-59
2021/05/24 01:55:54;;;;;;;54.00;50.58;;;17.70;99.90;;;;;;5013264;28;20028;-59
2021/05/24 01:58:23;;;;;;;55.00;51.45;;;17.70;99.90;;;;;;5013416;28;20118;-59
2021/05/24 02:00:50;;;;;;;54.08;50.72;;;17.80;99.90;;;;;;5013422;28;20034;-60
2021/05/24 02:03:18;;;;;;;54.83;51.42;;;17.70;99.90;;;;;;5013638;28;20022;-60
2021/05/24 02:05:45;;;;;;;54.72;51.22;;;17.80;99.90;;;;;;5013483;28;20505;-60
2021/05/24 02:08:12;;;;;;;53.33;49.92;;;17.90;99.90;;;;;;5013593;28;20025;-58
2021/05/24 02:10:40;;;;;;;52.92;49.42;;;17.90;99.90;;;;;;5013529;28;20025;-60
2021/05/24 02:13:08;;;;;;;52.20;48.78;;;18.00;99.90;;;;;;5013489;28;20072;-60
2021/05/24 02:15:38;;;;;;;51.45;48.15;;;18.00;99.90;;;;;;4995691;28;20034;-60
2021/05/24 02:18:06;;;;;;;52.08;48.97;;;18.00;99.90;;;;;;5013377;28;20098;-60
2021/05/24 02:20:34;;;;;;;47.55;44.65;;;18.10;99.90;;;;;;5013307;28;20030;-60
2021/05/24 02:23:03;;;;;;;49.20;46.38;;;18.00;99.90;;;;;;5013339;28;20386;-60
2021/05/24 02:25:31;;;;;;;50.47;47.47;;;18.00;99.90;;;;;;5013519;28;20041;-60
2021/05/24 02:27:59;;;;;;;52.50;49.35;;;18.00;99.90;;;;;;5013174;28;20302;-60
2021/05/24 02:30:28;;;;;;;51.15;48.05;;;18.10;99.90;;;;;;5012927;28;20037;-60
2021/05/24 02:32:56;;;;;;;51.38;48.15;;;18.10;99.90;;;;;;5013242;28;20026;-59
2021/05/24 02:35:26;;;;;;;49.78;46.67;;;18.30;99.90;;;;;;5013378;28;20030;-60
2021/05/24 02:37:55;;;;;;;47.75;44.75;;;18.30;99.90;;;;;;5013830;28;20022;-62
2021/05/24 02:40:23;;;;;;;48.17;45.28;;;18.20;99.90;;;;;;5012819;28;20030;-62
2021/05/24 02:42:51;;;;;;;49.05;46.15;;;18.30;99.90;;;;;;5013265;28;20029;-62
2021/05/24 02:45:20;;;;;;;50.88;48.08;;;18.30;99.90;;;;;;5013478;28;20032;-62
2021/05/24 02:48:42;;;;;;;50.70;47.90;;;18.10;99.90;;;;;;5013629;28;20055;-64
2021/05/24 02:51:10;;;;;;;49.88;46.88;;;18.10;99.90;;;;;;5008031;28;20041;-61
2021/05/24 02:53:37;;;;;;;50.50;47.40;;;18.40;99.90;;;;;;5013352;28;20034;-62
2021/05/24 02:56:04;;;;;;;48.70;45.90;;;18.70;99.90;;;;;;5013016;28;20030;-63
2021/05/24 02:58:32;;;;;;;45.15;42.60;;;19.00;99.90;;;;;;5012874;28;20098;-63
2021/05/24 03:00:59;;;;;;;43.15;40.65;;;18.80;99.90;;;;;;5013116;28;20022;-62
2021/05/24 03:03:29;;;;;;;45.70;43.08;;;18.80;99.90;;;;;;5013196;28;20033;-62
2021/05/24 03:05:56;;;;;;;45.67;43.13;;;18.90;99.90;;;;;;5012965;28;20030;-62
2021/05/24 03:08:24;;;;;;;46.55;44.05;;;19.10;99.90;;;;;;5013079;28;20025;-62
2021/05/24 03:10:51;;;;;;;43.05;40.75;;;19.30;99.90;;;;;;5012930;28;20026;-63
2021/05/24 03:13:18;;;;;;;40.55;38.35;;;19.40;99.90;;;;;;5012715;28;20434;-62
2021/05/24 03:15:46;;;;;;;39.53;37.53;;;19.50;99.90;;;;;;5012840;28;20142;-62
2021/05/24 03:18:13;;;;;;;38.35;36.45;;;19.40;99.90;;;;;;5012848;28;20029;-62
2021/05/24 03:20:40;;;;;;;36.80;35.00;;;19.50;99.90;;;;;;5012816;28;20029;-62
2021/05/24 03:23:08;;;;;;;36.17;34.22;;;19.60;99.90;;;;;;5012990;28;20069;-61
2021/05/24 03:25:35;;;;;;;36.35;34.50;;;19.70;99.90;;;;;;5012987;28;20022;-63
2021/05/24 03:28:02;;;;;;;35.53;33.58;;;19.70;99.90;;;;;;5012628;28;20037;-58
2021/05/24 03:30:30;;;;;;;33.85;32.15;;;19.70;99.90;;;;;;5012689;28;20022;-59
2021/05/24 03:32:58;;;;;;;33.63;31.73;;;19.70;99.90;;;;;;5012490;28;20030;-59
2021/05/24 03:35:25;;;;;;;35.05;32.97;;;19.80;99.90;;;;;;5012417;28;20026;-59
2021/05/24 03:37:52;;;;;;;37.45;35.50;;;19.70;99.90;;;;;;5012724;28;20115;-59
2021/05/24 03:40:20;;;;;;;39.58;37.55;;;19.90;99.90;;;;;;5012486;28;20026;-61
2021/05/24 03:42:48;;;;;;;39.63;37.67;;;20.10;99.90;;;;;;5014969;28;20022;-61
2021/05/24 03:45:22;;;;;;;38.10;36.13;;;20.10;99.90;;;;;;5016169;28;20052;-62
2021/05/24 03:47:50;;;;;;;36.85;34.95;;;20.00;99.90;;;;;;4998672;28;20033;-61
2021/05/24 03:50:19;;;;;;;34.50;32.70;;;20.10;99.90;;;;;;5016209;28;20030;-62
2021/05/24 03:52:46;;;;;;;34.58;32.67;;;20.00;99.90;;;;;;5016184;28;20026;-61
2021/05/24 03:55:17;;;;;;;36.25;34.10;;;20.10;99.90;;;;;;5016122;28;20102;-62
2021/05/24 03:57:47;;;;;;;29.85;28.25;;;20.20;99.90;;;;;;5016209;28;20022;-61
2021/05/24 04:00:17;;;;;;;28.48;26.65;;;20.10;99.90;;;;;;5015783;28;20129;-61
2021/05/24 04:02:45;;;;;;;27.75;26.17;;;19.90;99.90;;;;;;5016024;28;20044;-61
2021/05/24 04:05:19;;;;;;;26.05;24.65;;;20.00;99.90;;;;;;5016126;28;20032;-62
2021/05/24 04:07:54;;;;;;;26.15;24.80;;;20.10;99.90;;;;;;5015867;28;20030;-61
2021/05/24 04:10:35;;;;;;;26.75;25.25;;;20.10;99.90;;;;;;5015803;28;20054;-62
2021/05/24 04:13:03;;;;;;;26.10;24.80;;;20.20;99.90;;;;;;5016063;28;20028;-61
2021/05/24 04:15:31;;;;;;;26.40;25.17;;;20.20;99.90;;;;;;5015762;28;20099;-61
2021/05/24 04:18:01;;;;;;;27.00;25.65;;;20.20;99.90;;;;;;5015912;28;20018;-61
2021/05/24 04:20:28;;;;;;;28.17;26.77;;;20.10;99.90;;;;;;5015550;28;20025;-62
2021/05/24 04:39:01;;;;;;;29.77;28.17;;;19.40;99.90;;;;;;5014946;28;20034;-61
2021/05/24 04:41:29;;;;;;;28.50;26.83;;;19.20;99.90;;;;;;5015270;28;20382;-61
2021/05/24 04:44:08;;;;;;;30.63;28.80;;;19.20;99.90;;;;;;5015349;28;20029;-61
2021/05/24 04:46:35;;;;;;;32.65;30.75;;;19.10;99.90;;;;;;5014974;28;20482;-61
2021/05/24 04:49:02;;;;;;;33.25;31.33;;;19.10;99.90;;;;;;5014881;28;20049;-62
2021/05/24 04:51:30;;;;;;;34.85;32.75;;;19.20;99.90;;;;;;5014996;28;20026;-61
2021/05/24 04:53:57;;;;;;;34.33;32.53;;;19.20;99.90;;;;;;5014804;28;20033;-61
2021/05/24 04:56:24;;;;;;;33.83;32.03;;;19.20;99.90;;;;;;5014863;28;20061;-61
2021/05/24 04:58:52;;;;;;;32.85;31.05;;;19.20;99.90;;;;;;5014582;28;20052;-61
2021/05/24 05:01:20;;;;;;;32.72;31.00;;;19.30;99.90;;;;;;5014916;28;20021;-62
2021/05/24 05:03:47;;;;;;;32.13;30.40;;;19.10;99.90;;;;;;5014791;28;20037;-61
2021/05/24 05:06:15;;;;;;;34.03;32.13;;;19.10;99.90;;;;;;5014594;28;20022;-61
2021/05/24 05:08:42;;;;;;;34.90;32.90;;;19.10;99.90;;;;;;5014680;28;20386;-61
2021/05/24 05:11:09;;;;;;;35.50;33.80;;;19.20;99.90;;;;;;5014654;28;20120;-62
2021/05/24 05:13:37;;;;;;;37.67;35.53;;;19.10;99.90;;;;;;5014480;28;20038;-62
2021/05/24 05:16:04;;;;;;;38.38;36.38;;;19.10;99.90;;;;;;5014335;28;20026;-61
2021/05/24 05:18:31;;;;;;;39.30;37.30;;;19.10;99.90;;;;;;5014517;28;20447;-62
2021/05/24 05:20:59;;;;;;;40.55;38.45;;;19.00;99.90;;;;;;5014472;28;20026;-61
2021/05/24 05:23:26;;;;;;;43.10;40.80;;;18.80;99.90;;;;;;5014361;28;20146;-61
2021/05/24 05:25:54;;;;;;;44.75;42.35;;;18.80;99.90;;;;;;5014284;28;20029;-62
2021/05/24 05:28:23;;;;;;;47.22;44.70;;;18.70;99.90;;;;;;5014378;28;20104;-61
2021/05/24 05:30:53;;;;;;;47.65;45.05;;;18.60;99.90;;;;;;5014184;28;20395;-65
2021/05/24 05:33:20;;;;;;;;;;;18.60;99.90;;;;;;5014806;28;20439;-60
2021/05/24 05:35:49;;;;;;;48.05;45.45;;;18.50;99.90;;;;;;5014148;28;20267;-61
2021/05/24 05:38:16;;;;;;;47.65;45.05;;;18.60;99.90;;;;;;5014198;28;20364;-61
2021/05/24 05:40:48;;;;;;;50.65;47.83;;;18.70;99.90;;;;;;5014224;28;20025;-61
2021/05/24 05:43:15;;;;;;;48.67;45.97;;;18.70;99.90;;;;;;5014033;28;20018;-61
2021/05/24 05:45:42;;;;;;;49.63;46.85;;;18.70;99.90;;;;;;5013950;28;20030;-61
2021/05/24 05:48:11;;;;;;;48.20;45.40;;;18.80;99.90;;;;;;5014243;28;20029;-60
2021/05/24 05:50:38;;;;;;;47.10;44.45;;;18.50;99.90;;;;;;5013849;28;20033;-61
2021/05/24 05:53:06;;;;;;;50.10;47.10;;;18.40;99.90;;;;;;5013712;28;20049;-61
2021/05/24 05:55:33;;;;;;;52.97;50.08;;;18.40;99.90;;;;;;5013819;28;20097;-61
2021/05/24 05:58:01;;;;;;;48.97;46.22;;;18.50;99.90;;;;;;5013721;28;20029;-61
2021/05/24 06:00:28;;;;;;;48.10;45.42;;;18.30;99.90;;;;;;4996374;28;20037;-61
2021/05/24 06:02:55;;;;;;;48.15;45.47;;;18.00;99.90;;;;;;5013883;28;20356;-61
2021/05/24 06:05:23;;;;;;;49.05;46.25;;;17.80;99.90;;;;;;5013276;28;20029;-61
2021/05/24 06:07:50;;;;;;;49.28;46.58;;;17.60;99.90;;;;;;5013545;28;20432;-62
2021/05/24 06:10:18;;;;;;;49.55;46.65;;;17.30;99.90;;;;;;5013452;28;20044;-60
2021/05/24 06:12:47;;;;;;;47.08;44.38;;;17.30;99.90;;;;;;5013543;28;20045;-62
2021/05/24 06:15:17;;;;;;;47.20;44.45;;;17.10;99.90;;;;;;5013437;28;20104;-60
2021/05/24 06:17:46;;;;;;;47.47;44.67;;;16.90;99.90;;;;;;5013329;28;20022;-60
2021/05/24 06:20:14;;;;;;;48.72;45.80;;;16.90;99.90;;;;;;5013142;28;20029;-60
2021/05/24 06:22:41;;;;;;;48.13;44.97;;;16.90;99.90;;;;;;5013366;28;20406;-60
2021/05/24 06:25:10;;;;;;;46.13;43.45;;;16.80;99.90;;;;;;5013838;28;20022;-60
2021/05/24 06:27:38;;;;;;;46.33;43.55;;;16.80;99.90;;;;;;4995595;28;20105;-61
2021/05/24 06:30:08;;;;;;;44.53;41.53;;;16.70;99.90;;;;;;5013263;28;20054;-60
2021/05/24 06:32:36;;;;;;;45.00;42.38;;;16.70;99.90;;;;;;5012975;28;20026;-60
2021/05/24 06:35:05;;;;;;;47.78;44.97;;;16.70;99.90;;;;;;5013183;28;20080;-60
2021/05/24 06:37:32;;;;;;;47.85;45.05;;;16.70;99.90;;;;;;5013204;28;20053;-61
2021/05/24 06:39:59;;;;;;;47.03;44.05;;;16.70;99.90;;;;;;5012964;28;20482;-62
2021/05/24 06:42:27;;;;;;;44.47;41.67;;;16.70;99.90;;;;;;5013072;28;20026;-60
2021/05/24 06:44:54;;;;;;;42.00;39.40;;;16.70;99.90;;;;;;5013151;28;20018;-63
2021/05/24 06:47:26;;;;;;;42.85;40.05;;;16.70;99.90;;;;;;5013007;28;20025;-62
2021/05/24 06:49:53;;;;;;;43.60;40.90;;;16.70;99.90;;;;;;5012848;28;20520;-59
2021/05/24 06:52:21;;;;;;;52.78;49.78;;;16.60;99.90;;;;;;5013006;28;20034;-60
2021/05/24 06:54:48;;;;;;;55.88;52.67;;;16.60;99.90;;;;;;5012679;28;20026;-61
2021/05/24 06:57:16;;;;;;;51.13;47.97;;;16.60;99.90;;;;;;4995156;28;20037;-62
2021/05/24 06:59:43;;;;;;;50.92;47.72;;;16.50;99.90;;;;;;5012742;28;20414;-61
2021/05/24 07:02:10;;;;;;;49.10;46.10;;;16.40;99.90;;;;;;5012908;28;20022;-61
2021/05/24 07:04:38;;;;;;;50.55;47.45;;;16.40;99.90;;;;;;5012848;28;20051;-62
2021/05/24 07:07:05;;;;;;;45.10;42.10;;;16.40;99.90;;;;;;5012918;28;20390;-61
2021/05/24 07:09:32;;;;;;;45.10;42.20;;;16.20;99.90;;;;;;5012858;28;20018;-62
2021/05/24 07:12:00;;;;;;;49.17;46.17;;;16.20;99.90;;;;;;5012941;28;20033;-61
2021/05/24 07:14:27;;;;;;;44.05;41.15;;;16.20;99.90;;;;;;5012890;28;20033;-62
2021/05/24 07:16:55;;;;;;;47.05;43.55;;;16.10;99.90;;;;;;5013984;28;20522;-62
2021/05/24 07:19:23;;;;;;;50.80;47.15;;;16.00;99.90;;;;;;5016065;28;20022;-62
2021/05/24 07:21:50;;;;;;;57.55;53.33;;;16.00;99.90;;;;;;5016355;28;20052;-61
2021/05/24 07:24:17;;;;;;;59.03;54.53;;;16.00;99.90;;;;;;5016512;28;20024;-61
2021/05/24 07:26:47;;;;;;;58.08;53.90;;;16.00;99.90;;;;;;5016349;28;20029;-61
2021/05/24 07:29:14;;;;;;;64.70;60.00;;;16.00;99.90;;;;;;5016522;28;20053;-61
2021/05/24 07:31:42;;;;;;;59.67;55.47;;;15.90;99.90;;;;;;5016535;28;20033;-62
2021/05/24 07:34:09;;;;;;;67.93;62.65;;;15.90;99.90;;;;;;4998937;28;20113;-61
2021/05/24 07:36:37;;;;;;;62.83;58.00;;;15.90;99.90;;;;;;5016182;28;20375;-62
2021/05/24 07:39:05;;;;;;;52.83;49.28;;;15.90;99.90;;;;;;5016162;28;20026;-63
2021/05/24 07:41:32;;;;;;;65.03;59.97;;;15.90;99.90;;;;;;5016364;28;20370;-62
2021/05/24 07:43:59;;;;;;;68.03;63.10;;;15.90;99.90;;;;;;5016096;28;20026;-62
2021/05/24 07:46:27;;;;;;;60.60;56.15;;;15.80;99.90;;;;;;5015958;28;20116;-62
2021/05/24 07:48:54;;;;;;;56.20;52.13;;;15.80;99.90;;;;;;5015822;28;20059;-63
2021/05/24 07:51:22;;;;;;;72.25;66.88;;;15.80;99.90;;;;;;5016085;28;20026;-62
2021/05/24 07:53:49;;;;;;;54.60;50.50;;;15.80;99.90;;;;;;5016023;28;20510;-63
2021/05/24 07:56:17;;;;;;;56.13;52.03;;;15.80;99.90;;;;;;5016242;28;20022;-63
2021/05/24 07:58:44;;;;;;;54.45;50.55;;;15.80;99.90;;;;;;5015733;28;20513;-64
2021/05/24 08:01:11;;;;;;;53.38;49.47;;;15.90;99.90;;;;;;5015801;28;20022;-63
2021/05/24 08:03:39;;;;;;;51.22;47.63;;;15.90;99.90;;;;;;5015979;28;20033;-63
2021/05/24 08:06:06;;;;;;;50.83;47.03;;;15.90;99.90;;;;;;5016005;28;20045;-63
2021/05/24 08:08:34;;;;;;;51.00;47.30;;;15.90;99.90;;;;;;5015649;28;20122;-63
2021/05/24 08:11:01;;;;;;;51.63;47.83;;;15.90;99.90;;;;;;5015916;28;20037;-63
2021/05/24 08:13:29;;;;;;;52.03;47.83;;;15.90;99.90;;;;;;5015832;28;20387;-62
2021/05/24 08:15:56;;;;;;;52.47;48.58;;;15.90;99.90;;;;;;5015649;28;20034;-63
2021/05/24 08:18:24;;;;;;;51.33;47.55;;;15.90;99.90;;;;;;5015503;28;20387;-63
2021/05/24 08:20:51;;;;;;;50.70;47.00;;;15.90;99.90;;;;;;5015380;28;20110;-65
2021/05/24 08:23:18;;;;;;;50.67;47.17;;;15.90;99.90;;;;;;5015396;28;20026;-63
2021/05/24 08:25:46;;;;;;;47.28;43.92;;;15.80;99.90;;;;;;5015386;28;20030;-63
2021/05/24 08:28:13;;;;;;;48.17;44.88;;;15.80;99.90;;;;;;5014904;28;20503;-64
2021/05/24 08:30:42;;;;;;;47.28;43.88;;;15.70;99.90;;;;;;5015259;28;20028;-60
2021/05/24 08:33:10;;;;;;;49.70;46.15;;;15.60;99.90;;;;;;5015388;28;20479;-66
2021/05/24 08:35:37;;;;;;;46.75;43.38;;;15.60;99.90;;;;;;5015119;28;20026;-66
2021/05/24 08:38:04;;;;;;;50.22;46.70;;;15.50;99.90;;;;;;5015333;28;20363;-65
2021/05/24 08:40:32;;;;;;;47.67;44.17;;;15.50;99.90;;;;;;5015317;28;20026;-63
2021/05/24 08:43:00;;;;;;;48.85;45.20;;;15.40;99.90;;;;;;5015231;28;20505;-63
2021/05/24 08:45:31;;;;;;;48.50;44.95;;;15.30;99.90;;;;;;5015212;28;20053;-62
2021/05/24 08:47:58;;;;;;;47.92;44.45;;;15.30;99.90;;;;;;5015011;28;20036;-63
2021/05/24 08:50:26;;;;;;;48.50;44.60;;;15.20;99.90;;;;;;5014624;28;20088;-62
2021/05/24 08:52:53;;;;;;;48.67;45.08;;;15.20;99.90;;;;;;5015167;28;20029;-62
2021/05/24 08:55:20;;;;;;;51.05;47.53;;;15.20;99.90;;;;;;5014803;28;20105;-65
2021/05/24 08:57:48;;;;;;;52.45;48.65;;;15.10;99.90;;;;;;5014592;28;20033;-63
2021/05/24 09:00:18;;;;;;;53.00;49.15;;;15.10;99.90;;;;;;5014656;28;20050;-61
2021/05/24 09:02:47;;;;;;;52.00;48.33;;;15.10;99.90;;;;;;5014970;28;20072;-62
2021/05/24 09:05:15;;;;;;;48.75;44.92;;;15.00;99.90;;;;;;5014581;28;20367;-65
2021/05/24 09:08:04;;;;;;;52.42;48.63;;;15.00;99.90;;;;;;5014647;28;20022;-65
2021/05/24 09:10:36;;;;;;;52.50;48.78;;;15.00;99.90;;;;;;5014640;28;20501;-63
2021/05/24 09:13:14;;;;;;;52.35;48.75;;;14.90;99.90;;;;;;5014366;28;20022;-65
2021/05/24 09:15:45;;;;;;;47.75;44.22;;;14.80;99.90;;;;;;5014391;28;20026;-65
2021/05/24 09:18:15;;;;;;;48.72;44.92;;;14.80;99.90;;;;;;5014353;28;20026;-65
2021/05/24 09:20:45;;;;;;;53.35;49.15;;;14.80;99.90;;;;;;5014218;28;20026;-65
2021/05/24 09:23:14;;;;;;;54.60;50.58;;;14.70;99.90;;;;;;5014276;28;20409;-64
2021/05/24 09:26:03;;;;;;;53.10;48.80;;;14.70;99.90;;;;;;5014151;28;20091;-62
2021/05/24 09:28:38;;;;;;;54.17;49.97;;;14.70;99.90;;;;;;5014195;28;20112;-63
2021/05/24 09:31:25;;;;;;;53.95;49.75;;;14.60;99.90;;;;;;5014004;28;20113;-66
2021/05/24 09:33:54;;;;;;;48.67;45.03;;;14.60;99.90;;;;;;5013969;28;20076;-63
2021/05/24 09:36:22;;;;;;;48.55;44.83;;;14.50;99.90;;;;;;5013870;28;20061;-63
2021/05/24 09:38:51;;;;;;;47.90;43.80;;;14.50;99.90;;;;;;5013303;28;20042;-65
2021/05/24 09:41:21;;;;;;;54.65;50.65;;;14.40;99.90;;;;;;5013555;28;20490;-66
2021/05/24 09:43:53;;;;;;;51.67;47.88;;;14.40;99.90;;;;;;5013924;28;20479;-64
2021/05/24 09:46:26;;;;;;;52.58;48.08;;;14.50;99.90;;;;;;5013949;28;20026;-66
2021/05/24 09:48:55;;;;;;;56.13;51.47;;;14.50;99.90;;;;;;5014010;28;20433;-64
2021/05/24 09:51:25;;;;;;;53.22;48.92;;;14.50;99.90;;;;;;4996214;28;20037;-64
2021/05/24 09:54:01;;;;;;;53.22;48.97;;;14.60;99.90;;;;;;4996129;28;20116;-64
2021/05/24 09:56:37;;;;;;;53.38;49.28;;;14.70;99.90;;;;;;5013649;28;20030;-64
2021/05/24 09:59:13;;;;;;;54.90;50.65;;;14.70;99.90;;;;;;5013609;28;20104;-64
2021/05/24 10:01:44;;;;;;;54.40;50.28;;;14.80;99.90;;;;;;5013562;28;20072;-65
2021/05/24 10:04:12;;;;;;;;;;;14.80;99.90;;;;;;5013822;28;20542;-65
2021/05/24 10:06:40;;;;;;;52.05;48.05;;;14.90;99.90;;;;;;4995861;28;19960;-65
2021/05/24 10:09:09;;;;;;;54.42;50.33;;;15.00;99.90;;;;;;5013070;28;20038;-64
2021/05/24 10:11:43;;;;;;;49.83;45.92;;;15.00;99.90;;;;;;5013375;28;20061;-64
2021/05/24 10:14:15;;;;;;;50.30;46.40;;;15.00;99.90;;;;;;5013256;28;20487;-64
2021/05/24 10:16:47;;;;;;;48.97;45.17;;;15.00;99.90;;;;;;5013111;28;20103;-64
2021/05/24 10:19:18;;;;;;;54.95;51.08;;;15.00;99.90;;;;;;5013031;28;20079;-64
2021/05/24 10:21:48;;;;;;;55.03;51.13;;;15.10;99.90;;;;;;5013107;28;20029;-64
2021/05/24 10:24:16;;;;;;;47.72;43.83;;;15.00;99.90;;;;;;5013352;28;20025;-64
2021/05/24 10:26:45;;;;;;;50.63;46.60;;;15.10;99.90;;;;;;4995532;28;20087;-64
2021/05/24 10:29:14;;;;;;;53.03;48.72;;;15.10;99.90;;;;;;5013105;28;20034;-65
2021/05/24 10:31:42;;;;;;;51.13;47.10;;;15.10;99.90;;;;;;5013010;28;20025;-65
2021/05/24 10:34:19;;;;;;;52.55;48.50;;;15.10;99.90;;;;;;5012875;28;20033;-64
2021/05/24 10:37:14;;;;;;;51.38;47.60;;;15.00;99.90;;;;;;5012833;28;20029;-63
2021/05/24 10:39:45;;;;;;;53.10;49.30;;;15.00;99.90;;;;;;5005938;28;20065;-64
2021/05/24 10:42:14;;;;;;;53.20;49.25;;;15.00;99.90;;;;;;5013258;28;20033;-64
2021/05/24 10:44:44;;;;;;;57.97;54.08;;;14.90;99.90;;;;;;5012888;28;20034;-64
2021/05/24 10:47:25;;;;;;;56.45;52.65;;;14.80;99.90;;;;;;5012948;28;20221;-65
2021/05/24 10:50:03;;;;;;;51.97;48.00;;;14.80;99.90;;;;;;5012957;28;20394;-64
2021/05/24 10:52:36;;;;;;;50.25;46.20;;;14.80;99.90;;;;;;5016811;28;20037;-64
2021/05/24 10:55:28;;;;;;;50.85;46.83;;;14.90;99.90;;;;;;5017244;28;20033;-64
2021/05/24 10:58:14;;;;;;;49.00;45.17;;;14.90;99.90;;;;;;4999250;28;20486;-64
2021/05/24 11:00:55;;;;;;;51.42;47.50;;;15.00;99.90;;;;;;5016641;28;20030;-64
2021/05/24 11:03:23;;;;;;;52.40;48.10;;;14.90;99.90;;;;;;5016662;28;20025;-64
2021/05/24 11:06:17;;;;;;;54.85;50.58;;;14.90;99.90;;;;;;5016774;28;20026;-65
2021/05/24 11:09:05;;;;;;;53.97;49.58;;;14.90;99.90;;;;;;5016630;28;20025;-65
2021/05/24 11:11:39;;;;;;;55.28;50.97;;;14.90;99.90;;;;;;5016770;28;20045;-65
2021/05/24 11:14:09;;;;;;;56.40;51.97;;;15.00;99.90;;;;;;5016644;28;20026;-63
2021/05/24 11:16:40;;;;;;;55.47;51.20;;;15.00;99.90;;;;;;5016603;28;20044;-64
2021/05/24 11:19:30;;;;;;;57.53;53.25;;;15.00;99.90;;;;;;5016271;28;20034;-64
2021/05/24 11:22:34;;;;;;;55.00;51.00;;;15.10;99.90;;;;;;4998894;28;20026;-64
2021/05/24 11:28:13;;;;;;;48.63;45.03;;;15.20;99.90;;;;;;5016956;28;20029;-63
2021/05/24 11:30:40;;;;;;;45.50;41.75;;;15.20;99.90;;;;;;5016074;28;20029;-63
2021/05/24 11:33:40;;;;;;;48.35;44.45;;;15.20;99.90;;;;;;5016279;28;20101;-62
2021/05/24 11:36:09;;;;;;;49.33;45.60;;;15.20;99.90;;;;;;5016043;28;20037;-63
2021/05/24 11:38:37;;;;;;;50.30;46.53;;;15.20;99.90;;;;;;5016193;28;20052;-64
2021/05/24 11:41:15;;;;;;;51.38;47.55;;;15.20;99.90;;;;;;5016137;28;20022;-65
2021/05/24 11:43:43;;;;;;;54.25;50.15;;;15.20;99.90;;;;;;5016116;28;20092;-65
2021/05/24 11:46:13;;;;;;;57.40;53.10;;;15.20;99.90;;;;;;5015812;28;20033;-66
2021/05/24 11:48:43;;;;;;;62.83;58.60;;;15.10;99.90;;;;;;5016028;28;20030;-65
2021/05/24 11:51:16;;;;;;;68.13;63.15;;;15.20;99.90;;;;;;5015985;28;20030;-67
2021/05/24 11:54:10;;;;;;;51.90;47.88;;;15.10;99.90;;;;;;5015813;28;20045;-66
2021/05/24 11:56:48;;;;;;;59.55;55.20;;;15.10;99.90;;;;;;5015720;28;20395;-66
2021/05/24 11:59:18;;;;;;;50.72;46.65;;;15.20;99.90;;;;;;5015725;28;20038;-64
2021/05/24 12:01:48;;;;;;;53.07;48.53;;;15.20;99.90;;;;;;5015390;28;20025;-67
2021/05/24 12:04:18;;;;;;;52.20;48.20;;;15.20;99.90;;;;;;5015726;28;20339;-64
2021/05/24 12:07:01;;;;;;;50.65;46.55;;;15.20;99.90;;;;;;5015703;28;20034;-67
2021/05/24 12:09:41;;;;;;;60.30;55.72;;;15.20;99.90;;;;;;5015809;28;20037;-67
2021/05/24 12:12:11;;;;;;;55.15;50.75;;;15.10;99.90;;;;;;5015840;28;20052;-67
2021/05/24 12:14:42;;;;;;;57.80;53.60;;;15.10;99.90;;;;;;5015724;28;20033;-67
2021/05/24 12:17:14;;;;;;;55.78;51.78;;;15.10;99.90;;;;;;5015986;28;20029;-67
2021/05/24 12:19:43;;;;;;;58.70;54.20;;;15.10;99.90;;;;;;4997725;28;20030;-65
2021/05/24 12:22:13;;;;;;;55.72;51.42;;;15.00;99.90;;;;;;5015395;28;20037;-63
2021/05/24 12:24:45;;;;;;;60.50;56.30;;;15.00;99.90;;;;;;5015229;28;20022;-66
2021/05/24 12:27:14;;;;;;;62.38;58.25;;;15.00;99.90;;;;;;5015502;28;20022;-66
2021/05/24 12:29:54;;;;;;;59.30;55.20;;;14.90;99.90;;;;;;5015187;28;20032;-68
2021/05/24 12:32:37;;;;;;;58.80;54.30;;;14.80;99.90;;;;;;5015188;28;20075;-67
2021/05/24 12:35:13;;;;;;;60.17;55.97;;;14.70;99.90;;;;;;5015599;28;20034;-68
2021/05/24 12:37:47;;;;;;;61.83;57.53;;;14.70;99.90;;;;;;5015342;28;20044;-67
2021/05/24 12:40:15;;;;;;;56.92;52.65;;;14.70;99.90;;;;;;5015237;28;20022;-67
2021/05/24 12:42:43;;;;;;;60.35;56.35;;;14.60;99.90;;;;;;5015038;28;20449;-67
2021/05/24 12:45:13;;;;;;;57.17;52.70;;;14.60;99.90;;;;;;5015335;28;20025;-68
2021/05/24 12:47:40;;;;;;;57.40;53.13;;;14.60;99.90;;;;;;5015097;28;20040;-66
2021/05/24 12:50:18;;;;;;;62.08;57.72;;;14.60;99.90;;;;;;5015006;28;20030;-66
2021/05/24 12:52:45;;;;;;;63.67;59.13;;;14.60;99.90;;;;;;5014815;28;20030;-66
2021/05/24 12:55:19;;;;;;;58.72;54.45;;;14.60;99.90;;;;;;5014991;28;20386;-66
2021/05/24 12:57:48;;;;;;;59.35;55.25;;;14.60;99.90;;;;;;5014725;28;20079;-66
2021/05/24 13:00:17;;;;;;;65.35;60.95;;;14.70;99.90;;;;;;4997086;28;20398;-68
2021/05/24 13:02:52;;;;;;;61.55;56.97;;;14.70;99.90;;;;;;5014754;28;20026;-65